createdAt,value
2017-12-08T00:02:00.126Z,7.90
2017-12-08T00:04:27.781Z,7.90
2017-12-08T00:06:55.434Z,7.80
2017-12-08T00:09:23.078Z,7.90
2017-12-08T00:11:50.734Z,7.90
2017-12-08T00:14:18.398Z,8.00
2017-12-08T00:16:46.054Z,8.00
2017-12-08T00:19:13.694Z,8.00
2017-12-08T00:21:41.326Z,8.10
2017-12-08T00:24:08.991Z,8.00
2017-12-08T00:26:36.607Z,8.10
2017-12-08T00:29:04.243Z,8.20
2017-12-08T00:31:31.926Z,8.30
2017-12-08T00:33:59.681Z,8.40
2017-12-08T00:36:27.351Z,8.40
2017-12-08T00:38:54.987Z,8.50
2017-12-08T00:41:22.647Z,8.50
2017-12-08T00:43:51.158Z,8.60
2017-12-08T00:46:18.775Z,8.60
2017-12-08T00:48:46.459Z,8.60
2017-12-08T00:51:14.085Z,8.60
2017-12-08T00:53:41.708Z,8.50
2017-12-08T00:56:09.371Z,8.50
2017-12-08T00:58:37.014Z,8.40
2017-12-08T01:01:04.678Z,8.30
2017-12-08T01:03:32.320Z,8.30
2017-12-08T01:05:59.994Z,8.20
2017-12-08T01:08:27.779Z,8.10
2017-12-08T01:10:56.206Z,7.90
2017-12-08T01:13:23.871Z,7.90
2017-12-08T01:15:51.490Z,7.80
2017-12-08T01:18:19.281Z,7.80
2017-12-08T01:20:46.946Z,7.70
2017-12-08T01:23:15.325Z,7.50
2017-12-08T01:25:42.966Z,7.40
2017-12-08T01:28:10.583Z,7.40
2017-12-08T01:30:38.296Z,7.30
2017-12-08T01:33:05.950Z,7.20
2017-12-08T01:35:33.571Z,7.20
2017-12-08T01:38:01.240Z,7.10
2017-12-08T01:40:28.858Z,7.00
2017-12-08T01:42:56.485Z,7.00
2017-12-08T01:45:24.894Z,6.90
2017-12-08T01:47:52.528Z,6.80
2017-12-08T01:50:20.202Z,6.90
2017-12-08T01:52:47.831Z,6.80
2017-12-08T01:55:15.442Z,6.80
2017-12-08T01:57:43.862Z,6.70
2017-12-08T02:00:11.495Z,6.70
2017-12-08T02:02:39.290Z,6.70
2017-12-08T02:05:07.793Z,6.70
2017-12-08T02:07:35.409Z,6.70
2017-12-08T02:10:03.830Z,6.60
2017-12-08T02:12:31.518Z,6.60
2017-12-08T02:15:00.816Z,6.60
2017-12-08T02:17:29.302Z,6.60
2017-12-08T02:19:56.937Z,6.60
2017-12-08T02:22:24.608Z,6.70
2017-12-08T02:24:52.235Z,6.70
2017-12-08T02:27:19.924Z,6.60
2017-12-08T02:29:47.575Z,6.60
2017-12-08T02:32:15.185Z,6.60
2017-12-08T02:34:42.843Z,6.60
2017-12-08T02:37:10.476Z,6.60
2017-12-08T02:39:38.301Z,6.60
2017-12-08T02:42:05.960Z,6.60
2017-12-08T02:44:33.579Z,6.60
2017-12-08T02:47:01.998Z,6.60
2017-12-08T02:49:29.766Z,6.60
2017-12-08T02:51:57.387Z,6.60
2017-12-08T02:54:25.063Z,6.60
2017-12-08T02:56:52.692Z,6.50
2017-12-08T02:59:20.358Z,6.50
2017-12-08T03:01:48.046Z,6.40
2017-12-08T03:04:16.070Z,6.30
2017-12-08T03:06:43.725Z,6.20
2017-12-08T03:09:12.111Z,6.10
2017-12-08T03:11:40.506Z,6.00
2017-12-08T03:14:09.073Z,6.00
2017-12-08T03:16:36.702Z,6.00
2017-12-08T03:19:04.351Z,6.00
2017-12-08T03:21:32.000Z,6.00
2017-12-08T03:23:59.694Z,6.00
2017-12-08T03:26:27.349Z,6.00
2017-12-08T03:28:54.958Z,6.00
2017-12-08T03:31:22.575Z,6.00
2017-12-08T03:33:50.222Z,6.00
2017-12-08T03:36:17.849Z,6.00
2017-12-08T03:38:46.271Z,5.90
2017-12-08T03:41:13.908Z,5.90
2017-12-08T03:43:41.531Z,5.90
2017-12-08T03:46:09.234Z,5.90
2017-12-08T03:48:36.857Z,5.90
2017-12-08T03:51:04.517Z,6.00
2017-12-08T03:53:32.138Z,6.00
2017-12-08T03:55:59.778Z,5.90
2017-12-08T03:58:27.429Z,6.00
2017-12-08T04:00:55.050Z,6.00
2017-12-08T04:03:22.700Z,6.10
2017-12-08T04:05:50.310Z,6.00
2017-12-08T04:08:17.970Z,5.90
2017-12-08T04:10:46.373Z,5.90
2017-12-08T04:13:14.013Z,5.90
2017-12-08T04:15:41.672Z,6.00
2017-12-08T04:18:09.335Z,6.00
2017-12-08T04:20:36.996Z,6.10
2017-12-08T04:23:04.637Z,6.10
2017-12-08T04:25:32.338Z,6.10
2017-12-08T04:27:59.975Z,6.10
2017-12-08T04:30:27.637Z,6.10
2017-12-08T04:32:55.498Z,6.10
2017-12-08T04:35:23.153Z,6.20
2017-12-08T04:37:50.797Z,6.10
2017-12-08T04:40:18.440Z,6.20
2017-12-08T04:42:46.061Z,6.20
2017-12-08T04:45:13.721Z,6.20
2017-12-08T04:47:41.343Z,6.20
2017-12-08T04:50:09.839Z,6.20
2017-12-08T04:52:37.467Z,6.20
2017-12-08T04:55:05.091Z,6.20
2017-12-08T04:57:32.787Z,6.20
2017-12-08T05:00:00.415Z,6.20
2017-12-08T05:02:28.245Z,6.20
2017-12-08T05:04:55.920Z,6.20
2017-12-08T05:07:23.567Z,6.20
2017-12-08T05:09:51.346Z,6.30
2017-12-08T05:12:18.974Z,6.30
2017-12-08T05:14:46.634Z,6.30
2017-12-08T05:17:14.249Z,6.30
2017-12-08T05:19:41.862Z,6.30
2017-12-08T05:22:09.616Z,6.30
2017-12-08T05:24:38.042Z,6.30
2017-12-08T05:27:05.700Z,6.30
2017-12-08T05:29:33.349Z,6.40
2017-12-08T05:32:01.001Z,6.40
2017-12-08T05:34:28.716Z,6.40
2017-12-08T05:36:56.350Z,6.40
2017-12-08T05:39:24.124Z,6.40
2017-12-08T05:41:51.783Z,6.40
2017-12-08T05:44:19.415Z,6.40
2017-12-08T05:46:47.084Z,6.40
2017-12-08T05:49:14.730Z,6.40
2017-12-08T05:51:42.394Z,6.40
2017-12-08T05:54:10.782Z,6.40
2017-12-08T05:56:38.486Z,6.40
2017-12-08T05:59:06.153Z,6.40
2017-12-08T06:01:33.761Z,6.40
2017-12-08T06:04:01.422Z,6.40
2017-12-08T06:06:29.087Z,6.50
2017-12-08T06:08:56.725Z,6.40
2017-12-08T06:11:24.395Z,6.50
2017-12-08T06:13:52.057Z,6.50
2017-12-08T06:16:20.712Z,6.50
2017-12-08T06:18:48.425Z,6.50
2017-12-08T06:21:16.050Z,6.40
2017-12-08T06:23:43.690Z,6.40
2017-12-08T06:26:11.314Z,6.40
2017-12-08T06:28:39.901Z,6.50
2017-12-08T06:31:07.519Z,6.40
2017-12-08T06:33:35.142Z,6.50
2017-12-08T06:36:02.786Z,6.50
2017-12-08T06:38:30.403Z,6.40
2017-12-08T06:40:58.209Z,6.40
2017-12-08T06:43:25.841Z,6.40
2017-12-08T06:45:53.453Z,6.50
2017-12-08T06:48:21.090Z,6.40
2017-12-08T06:50:48.831Z,6.50
2017-12-08T06:53:16.474Z,6.50
2017-12-08T06:55:44.134Z,6.40
2017-12-08T06:58:11.749Z,6.40
2017-12-08T07:00:40.162Z,6.40
2017-12-08T07:03:07.816Z,6.40
2017-12-08T07:05:35.482Z,6.40
2017-12-08T07:08:03.094Z,6.40
2017-12-08T07:10:30.724Z,6.40
2017-12-08T07:12:58.370Z,6.40
2017-12-08T07:15:25.986Z,6.30
2017-12-08T07:17:54.398Z,6.30
2017-12-08T07:20:22.015Z,6.20
2017-12-08T07:22:49.730Z,6.30
2017-12-08T07:25:17.480Z,6.30
2017-12-08T07:27:45.094Z,6.20
2017-12-08T07:30:12.751Z,6.20
2017-12-08T07:32:40.370Z,6.20
2017-12-08T07:35:07.997Z,6.30
2017-12-08T07:37:35.640Z,6.30
2017-12-08T07:40:03.273Z,6.30
2017-12-08T07:42:31.678Z,6.20
2017-12-08T07:44:59.302Z,6.10
2017-12-08T07:47:26.914Z,6.20
2017-12-08T07:49:54.570Z,6.20
2017-12-08T07:52:22.209Z,6.20
2017-12-08T07:54:49.854Z,6.20
2017-12-08T07:57:17.510Z,6.10
2017-12-08T07:59:45.130Z,6.10
2017-12-08T08:02:12.786Z,6.20
2017-12-08T08:04:40.402Z,6.10
2017-12-08T08:07:08.137Z,6.10
2017-12-08T08:09:35.766Z,6.10
2017-12-08T08:12:03.390Z,6.10
2017-12-08T08:14:31.028Z,6.10
2017-12-08T08:16:58.693Z,6.10
2017-12-08T08:19:27.096Z,6.20
2017-12-08T08:21:54.702Z,6.20
2017-12-08T08:24:23.092Z,6.30
2017-12-08T08:26:50.750Z,6.30
2017-12-08T08:29:18.414Z,6.30
2017-12-08T08:31:46.075Z,6.30
2017-12-08T08:34:13.706Z,6.30
2017-12-08T08:36:41.394Z,6.30
2017-12-08T08:39:09.834Z,6.20
2017-12-08T08:41:37.462Z,6.10
2017-12-08T08:44:05.124Z,6.20
2017-12-08T08:46:32.804Z,6.20
2017-12-08T08:49:01.210Z,6.10
2017-12-08T08:51:28.892Z,6.00
2017-12-08T08:53:56.518Z,6.10
2017-12-08T08:56:24.216Z,6.10
2017-12-08T08:58:52.642Z,5.90
2017-12-08T09:01:20.299Z,5.90
2017-12-08T09:03:48.064Z,5.50
2017-12-08T09:06:15.696Z,5.30
2017-12-08T09:08:43.363Z,5.10
2017-12-08T09:11:11.797Z,5.20
2017-12-08T09:13:39.446Z,5.20
2017-12-08T09:16:07.109Z,5.20
2017-12-08T09:18:34.748Z,5.20
2017-12-08T09:21:02.417Z,5.20
2017-12-08T09:23:30.819Z,5.30
2017-12-08T09:25:58.497Z,5.20
2017-12-08T09:28:26.192Z,5.30
2017-12-08T09:30:53.841Z,5.40
2017-12-08T09:33:21.781Z,5.50
2017-12-08T09:35:50.186Z,5.60
2017-12-08T09:38:17.873Z,5.60
2017-12-08T09:40:46.343Z,5.70
2017-12-08T09:43:14.036Z,5.60
2017-12-08T09:45:41.687Z,5.70
2017-12-08T09:48:09.434Z,5.70
2017-12-08T09:50:37.091Z,5.70
2017-12-08T09:53:04.816Z,5.70
2017-12-08T09:55:32.495Z,5.70
2017-12-08T09:58:00.277Z,5.60
2017-12-08T10:00:27.934Z,5.70
2017-12-08T10:02:56.350Z,5.60
2017-12-08T10:05:24.003Z,5.60
2017-12-08T10:07:51.650Z,5.60
2017-12-08T10:10:19.945Z,5.60
2017-12-08T10:12:47.595Z,5.70
2017-12-08T10:15:15.357Z,5.90
2017-12-08T10:17:43.774Z,6.40
2017-12-08T10:20:12.078Z,6.40
2017-12-08T10:22:40.560Z,6.50
2017-12-08T10:25:08.342Z,6.40
2017-12-08T10:27:35.970Z,6.40
2017-12-08T10:30:03.632Z,6.40
2017-12-08T10:32:31.983Z,6.80
2017-12-08T10:34:59.706Z,7.10
2017-12-08T10:37:28.233Z,8.70
2017-12-08T10:39:55.929Z,8.60
2017-12-08T10:42:23.593Z,8.30
2017-12-08T10:44:51.283Z,8.50
2017-12-08T10:47:19.792Z,8.90
2017-12-08T10:49:47.448Z,8.90
2017-12-08T10:52:15.132Z,9.10
2017-12-08T10:54:42.904Z,9.00
2017-12-08T10:57:11.352Z,9.80
2017-12-08T10:59:39.048Z,9.80
2017-12-08T11:02:06.705Z,9.50
2017-12-08T11:04:34.357Z,9.40
2017-12-08T11:07:02.120Z,9.40
2017-12-08T11:09:29.835Z,9.40
2017-12-08T11:11:58.357Z,8.90
2017-12-08T11:14:26.060Z,8.90
2017-12-08T11:16:53.735Z,8.60
2017-12-08T11:19:21.389Z,8.00
2017-12-08T11:21:49.066Z,7.50
2017-12-08T11:24:16.733Z,7.20
2017-12-08T11:26:45.162Z,7.40
2017-12-08T11:29:12.794Z,7.40
2017-12-08T11:31:40.458Z,7.40
2017-12-08T11:34:08.176Z,7.40
2017-12-08T11:36:35.871Z,7.30
2017-12-08T11:39:04.354Z,7.20
2017-12-08T11:41:32.020Z,7.00
2017-12-08T11:43:59.749Z,6.60
2017-12-08T11:46:28.300Z,6.30
2017-12-08T11:48:55.959Z,6.30
2017-12-08T11:51:23.615Z,5.80
2017-12-08T11:53:51.343Z,5.20
2017-12-08T11:56:18.994Z,4.90
2017-12-08T11:58:47.397Z,4.80
2017-12-08T12:01:15.039Z,4.80
2017-12-08T12:03:42.834Z,4.90
2017-12-08T12:06:10.535Z,4.90
2017-12-08T12:08:38.734Z,5.00
2017-12-08T12:11:06.392Z,5.00
2017-12-08T12:13:34.056Z,4.90
2017-12-08T12:16:02.486Z,4.90
2017-12-08T12:18:30.122Z,4.80
2017-12-08T12:20:57.814Z,4.90
2017-12-08T12:23:25.475Z,4.90
2017-12-08T12:25:53.917Z,4.90
2017-12-08T12:28:21.586Z,4.80
2017-12-08T12:30:49.979Z,4.90
2017-12-08T12:33:17.719Z,4.80
2017-12-08T12:35:45.385Z,4.80
2017-12-08T12:38:13.145Z,4.80
2017-12-08T12:40:40.780Z,4.80
2017-12-08T12:43:08.694Z,4.80
2017-12-08T12:45:36.350Z,4.80
2017-12-08T12:48:04.013Z,4.90
2017-12-08T12:50:31.689Z,5.10
2017-12-08T12:52:59.651Z,5.20
2017-12-08T12:55:27.295Z,5.40
2017-12-08T12:57:54.997Z,5.70
2017-12-08T13:00:22.651Z,5.80
2017-12-08T13:02:50.315Z,5.60
2017-12-08T13:05:18.328Z,5.80
2017-12-08T13:07:46.705Z,6.20
2017-12-08T13:10:14.405Z,6.10
2017-12-08T13:12:42.053Z,6.20
2017-12-08T13:15:09.724Z,5.90
2017-12-08T13:17:37.358Z,6.10
2017-12-08T13:20:05.010Z,6.20
2017-12-08T13:22:32.679Z,6.20
2017-12-08T13:25:00.331Z,6.20
2017-12-08T13:27:28.002Z,6.20
2017-12-08T13:29:56.456Z,6.30
2017-12-08T13:32:24.148Z,5.90
2017-12-08T13:34:51.867Z,5.50
2017-12-08T13:37:20.021Z,5.40
2017-12-08T13:39:47.684Z,5.40
2017-12-08T13:42:15.415Z,5.20
2017-12-08T13:44:43.046Z,5.30
2017-12-08T13:47:10.814Z,5.50
2017-12-08T13:49:38.462Z,5.50
2017-12-08T13:52:06.123Z,5.30
2017-12-08T13:54:45.629Z,5.10
2017-12-08T13:57:13.344Z,5.00
2017-12-08T13:59:41.771Z,4.60
2017-12-08T14:02:09.434Z,4.60
2017-12-08T14:04:37.138Z,4.60
2017-12-08T14:07:04.987Z,4.60
2017-12-08T14:09:32.641Z,4.40
2017-12-08T14:12:00.395Z,4.40
2017-12-08T14:14:28.063Z,4.40
2017-12-08T14:16:55.750Z,4.40
2017-12-08T14:19:24.141Z,4.30
2017-12-08T14:21:51.854Z,4.20
2017-12-08T14:24:19.655Z,4.20
2017-12-08T14:26:47.283Z,4.20
2017-12-08T14:29:14.934Z,4.10
2017-12-08T14:31:42.590Z,4.00
2017-12-08T14:34:10.278Z,4.00
2017-12-08T14:36:38.687Z,4.10
2017-12-08T14:39:06.398Z,4.00
2017-12-08T14:41:35.402Z,3.90
2017-12-08T14:44:03.050Z,3.80
2017-12-08T14:46:30.734Z,3.80
2017-12-08T14:48:58.437Z,3.80
2017-12-08T14:51:26.067Z,3.80
2017-12-08T14:53:54.513Z,3.70
2017-12-08T14:56:22.202Z,3.60
2017-12-08T14:58:49.983Z,3.70
2017-12-08T15:01:18.215Z,3.70
2017-12-08T15:03:45.904Z,3.70
2017-12-08T15:06:13.563Z,3.60
2017-12-08T15:08:41.209Z,3.60
2017-12-08T15:11:09.005Z,3.60
2017-12-08T15:13:36.633Z,3.50
2017-12-08T15:16:04.346Z,3.50
2017-12-08T15:18:32.043Z,3.60
2017-12-08T15:20:59.706Z,3.60
2017-12-08T15:23:27.386Z,3.60
2017-12-08T15:25:55.037Z,3.60
2017-12-08T15:28:22.685Z,3.50
2017-12-08T15:30:50.470Z,3.50
2017-12-08T15:33:18.357Z,3.40
2017-12-08T15:35:46.146Z,3.30
2017-12-08T15:38:13.846Z,3.20
2017-12-08T15:40:41.498Z,3.20
2017-12-08T15:43:09.148Z,3.10
2017-12-08T15:45:36.829Z,3.10
2017-12-08T15:48:04.572Z,3.20
2017-12-08T15:50:32.306Z,3.10
2017-12-08T15:52:59.958Z,3.20
2017-12-08T15:55:27.680Z,3.20
2017-12-08T15:57:55.326Z,3.20
2017-12-08T16:00:23.106Z,3.20
2017-12-08T16:02:50.749Z,3.30
2017-12-08T16:05:18.372Z,3.30
2017-12-08T16:07:46.074Z,3.30
2017-12-08T16:10:14.470Z,3.30
2017-12-08T16:12:42.182Z,3.30
2017-12-08T16:15:10.640Z,3.20
2017-12-08T16:17:38.429Z,3.20
2017-12-08T16:20:06.140Z,3.30
2017-12-08T16:22:33.867Z,3.30
2017-12-08T16:25:01.585Z,3.30
2017-12-08T16:27:29.791Z,3.40
2017-12-08T16:29:57.519Z,3.40
2017-12-08T16:32:25.302Z,3.40
2017-12-08T16:34:53.896Z,3.40
2017-12-08T16:37:22.015Z,3.50
2017-12-08T16:39:49.665Z,3.60
2017-12-08T16:42:17.305Z,3.60
2017-12-08T16:44:50.273Z,3.60
2017-12-08T16:47:18.951Z,3.50
2017-12-08T16:49:46.644Z,3.50
2017-12-08T16:52:15.191Z,3.60
2017-12-08T16:54:45.970Z,3.60
2017-12-08T16:57:15.036Z,3.60
2017-12-08T16:59:42.685Z,3.60
2017-12-08T17:02:10.353Z,3.60
2017-12-08T17:04:39.366Z,3.60
2017-12-08T17:07:07.823Z,3.60
2017-12-08T17:09:35.597Z,3.60
2017-12-08T17:12:03.288Z,3.60
2017-12-08T17:14:30.983Z,3.50
2017-12-08T17:16:59.493Z,3.50
2017-12-08T17:19:27.167Z,3.40
2017-12-08T17:21:55.346Z,3.50
2017-12-08T17:24:28.486Z,3.40
2017-12-08T17:26:56.908Z,3.40
2017-12-08T17:29:25.025Z,3.40
2017-12-08T17:31:53.146Z,3.40
2017-12-08T17:34:20.924Z,3.40
2017-12-08T17:36:48.590Z,3.30
2017-12-08T17:39:16.245Z,3.40
2017-12-08T17:41:44.402Z,3.30
2017-12-08T17:44:12.074Z,3.30
2017-12-08T17:46:39.770Z,3.30
2017-12-08T17:49:07.461Z,3.30
2017-12-08T17:51:35.378Z,3.30
2017-12-08T17:54:03.037Z,3.30
2017-12-08T17:56:30.687Z,3.20
2017-12-08T17:58:58.362Z,3.30
2017-12-08T18:01:26.021Z,3.20
2017-12-08T18:03:53.708Z,3.20
2017-12-08T18:06:21.323Z,3.20
2017-12-08T18:08:48.990Z,3.20
2017-12-08T18:11:16.710Z,3.20
2017-12-08T18:13:44.349Z,3.10
2017-12-08T18:16:12.255Z,3.00
2017-12-08T18:18:39.898Z,3.00
2017-12-08T18:21:07.568Z,3.00
2017-12-08T18:23:35.219Z,2.90
2017-12-08T18:26:02.866Z,2.90
2017-12-08T18:28:30.506Z,2.90
2017-12-08T18:30:58.125Z,3.00
2017-12-08T18:33:25.755Z,3.00
2017-12-08T18:35:53.419Z,3.00
2017-12-08T18:38:22.081Z,3.00
2017-12-08T18:40:49.775Z,3.00
2017-12-08T18:43:18.834Z,2.90
2017-12-08T18:45:46.839Z,2.90
2017-12-08T18:48:15.511Z,3.00
2017-12-08T18:50:45.077Z,3.00
2017-12-08T18:53:12.884Z,3.00
2017-12-08T18:55:40.528Z,3.00
2017-12-08T18:58:08.399Z,3.10
2017-12-08T19:00:36.029Z,2.90
2017-12-08T19:03:03.703Z,2.70
2017-12-08T19:05:32.996Z,2.50
2017-12-08T19:08:01.453Z,2.30
2017-12-08T19:10:29.326Z,2.20
2017-12-08T19:12:58.363Z,2.20
2017-12-08T19:15:26.002Z,2.20
2017-12-08T19:17:54.924Z,2.20
2017-12-08T19:20:23.317Z,2.20
2017-12-08T19:22:51.046Z,2.10
2017-12-08T19:25:19.485Z,2.10
2017-12-08T19:27:47.114Z,2.00
2017-12-08T19:30:14.821Z,2.10
2017-12-08T19:32:42.453Z,2.10
2017-12-08T19:35:10.087Z,2.10
2017-12-08T19:37:38.713Z,2.20
2017-12-08T19:40:06.348Z,2.10
2017-12-08T19:42:34.610Z,2.20
2017-12-08T19:45:02.241Z,2.20
2017-12-08T19:47:29.969Z,2.20
2017-12-08T19:49:59.163Z,2.30
2017-12-08T19:52:26.879Z,2.20
2017-12-08T19:54:57.634Z,2.30
2017-12-08T19:57:25.273Z,2.30
2017-12-08T19:59:53.705Z,2.20
2017-12-08T20:02:21.355Z,2.20
2017-12-08T20:04:48.983Z,2.20
2017-12-08T20:07:16.648Z,2.20
2017-12-08T20:09:45.065Z,2.30
2017-12-08T20:12:12.858Z,2.20
2017-12-08T20:14:40.564Z,2.30
2017-12-08T20:17:08.346Z,2.20
2017-12-08T20:19:36.009Z,2.20
2017-12-08T20:22:04.394Z,2.30
2017-12-08T20:24:32.020Z,2.20
2017-12-08T20:26:59.776Z,2.20
2017-12-08T20:29:28.293Z,2.20
2017-12-08T20:31:55.990Z,2.10
2017-12-08T20:34:24.379Z,2.10
2017-12-08T20:36:51.989Z,2.10
2017-12-08T20:39:19.778Z,2.10
2017-12-08T20:41:47.461Z,2.10
2017-12-08T20:44:15.119Z,2.10
2017-12-08T20:46:42.785Z,2.00
2017-12-08T20:49:11.168Z,1.90
2017-12-08T20:51:39.745Z,1.90
2017-12-08T20:54:07.406Z,1.90
2017-12-08T20:56:35.058Z,2.00
2017-12-08T20:59:02.673Z,2.00
2017-12-08T21:01:31.050Z,1.90
2017-12-08T21:03:58.774Z,1.80
2017-12-08T21:06:26.441Z,1.90
2017-12-08T21:08:54.142Z,1.90
2017-12-08T21:11:21.774Z,1.80
2017-12-08T21:13:49.473Z,1.80
2017-12-08T21:16:17.902Z,1.70
2017-12-08T21:18:45.564Z,1.70
2017-12-08T21:21:13.212Z,1.70
2017-12-08T21:23:41.851Z,1.80
2017-12-08T21:26:09.614Z,1.80
2017-12-08T21:28:37.274Z,1.80
2017-12-08T21:31:04.983Z,1.80
2017-12-08T21:33:32.640Z,1.90
2017-12-08T21:36:00.257Z,1.90
2017-12-08T21:38:27.900Z,1.90
2017-12-08T21:40:55.568Z,1.90
2017-12-08T21:43:23.274Z,2.00
2017-12-08T21:45:50.906Z,2.00
2017-12-08T21:48:19.124Z,2.00
2017-12-08T21:50:46.842Z,1.90
2017-12-08T21:53:14.611Z,1.90
2017-12-08T21:55:42.362Z,1.90
2017-12-08T21:58:09.997Z,1.90
2017-12-08T22:00:37.622Z,1.90
2017-12-08T22:03:06.122Z,1.90
2017-12-08T22:05:33.778Z,1.90
2017-12-08T22:08:01.427Z,1.90
2017-12-08T22:10:29.081Z,2.00
2017-12-08T22:12:56.698Z,2.00
2017-12-08T22:15:24.327Z,2.00
2017-12-08T22:17:52.735Z,2.00
2017-12-08T22:20:20.387Z,1.90
2017-12-08T22:22:48.099Z,2.00
2017-12-08T22:25:15.714Z,2.00
2017-12-08T22:27:43.325Z,2.00
2017-12-08T22:30:10.971Z,1.90
2017-12-08T22:32:38.734Z,2.10
2017-12-08T22:35:06.402Z,2.00
2017-12-08T22:37:34.043Z,2.00
2017-12-08T22:40:01.658Z,2.00
2017-12-08T22:42:29.439Z,1.90
2017-12-08T22:44:57.072Z,1.90
2017-12-08T22:47:24.718Z,1.80
2017-12-08T22:49:52.369Z,1.80
2017-12-08T22:52:20.010Z,1.80
2017-12-08T22:54:47.860Z,1.80
2017-12-08T22:57:15.520Z,1.80
2017-12-08T22:59:43.252Z,1.80
2017-12-08T23:02:10.898Z,1.70
2017-12-08T23:04:38.768Z,1.70
2017-12-08T23:07:06.376Z,1.70
2017-12-08T23:09:34.001Z,1.70
2017-12-08T23:12:01.650Z,1.70
2017-12-08T23:14:29.254Z,1.70
2017-12-08T23:16:56.894Z,1.70
2017-12-08T23:19:24.592Z,1.70
2017-12-08T23:21:52.219Z,1.70
2017-12-08T23:24:20.616Z,1.60
2017-12-08T23:26:48.362Z,1.60
2017-12-08T23:29:16.008Z,1.60
2017-12-08T23:31:43.649Z,1.50
2017-12-08T23:34:11.309Z,1.50
2017-12-08T23:36:38.942Z,1.40
2017-12-08T23:39:06.579Z,1.40
2017-12-08T23:41:34.228Z,1.40
2017-12-08T23:44:01.858Z,1.40
2017-12-08T23:46:30.248Z,1.30
2017-12-08T23:48:57.952Z,1.30
2017-12-08T23:51:26.354Z,1.20
2017-12-08T23:53:53.966Z,1.20
2017-12-08T23:56:22.478Z,1.20
2017-12-08T23:58:50.110Z,1.20
